createdAt,value
2022-10-05T00:00:42.550Z,93.92
2022-10-05T00:01:42.614Z,94.02
2022-10-05T00:02:42.531Z,94.12
2022-10-05T00:03:42.528Z,94.12
2022-10-05T00:04:42.558Z,94.12
2022-10-05T00:05:42.480Z,94.12
2022-10-05T00:06:42.652Z,94.08
2022-10-05T00:07:42.449Z,94.08
2022-10-05T00:08:42.490Z,94.08
2022-10-05T00:09:42.427Z,94.08
2022-10-05T00:10:42.418Z,94.08
2022-10-05T00:11:42.419Z,94.08
2022-10-05T00:12:42.389Z,94.08
2022-10-05T00:13:42.395Z,93.98
2022-10-05T00:14:42.398Z,93.98
2022-10-05T00:15:42.372Z,93.98
2022-10-05T00:16:42.459Z,93.98
2022-10-05T00:17:42.346Z,94.08
2022-10-05T00:18:42.328Z,94.08
2022-10-05T00:19:42.332Z,93.98
2022-10-05T00:20:42.359Z,93.98
2022-10-05T00:21:42.307Z,93.98
2022-10-05T00:22:42.336Z,93.98
2022-10-05T00:23:42.288Z,93.98
2022-10-05T00:24:42.264Z,93.98
2022-10-05T00:25:42.288Z,93.93
2022-10-05T00:26:42.239Z,93.93
2022-10-05T00:27:42.263Z,93.93
2022-10-05T00:28:42.226Z,93.84
2022-10-05T00:29:42.257Z,93.84
2022-10-05T00:30:42.197Z,93.84
2022-10-05T00:31:42.269Z,93.84
2022-10-05T00:32:42.183Z,93.73
2022-10-05T00:33:42.180Z,93.84
2022-10-05T00:34:42.157Z,93.84
2022-10-05T00:35:42.177Z,93.84
2022-10-05T00:36:42.137Z,93.84
2022-10-05T00:37:42.128Z,93.73
2022-10-05T00:38:42.169Z,93.73
2022-10-05T00:39:42.131Z,93.73
2022-10-05T00:40:42.092Z,93.73
2022-10-05T00:41:42.086Z,93.73
2022-10-05T00:42:42.116Z,93.73
2022-10-05T00:43:42.066Z,93.63
2022-10-05T00:44:42.066Z,93.59
2022-10-05T00:45:42.064Z,93.59
2022-10-05T00:46:42.047Z,93.48
2022-10-05T00:47:42.027Z,93.48
2022-10-05T00:48:42.046Z,93.38
2022-10-05T00:49:42.051Z,93.38
2022-10-05T00:50:41.977Z,93.28
2022-10-05T00:51:41.987Z,93.18
2022-10-05T00:52:41.993Z,93.18
2022-10-05T00:53:41.991Z,93.07
2022-10-05T00:54:41.963Z,93.07
2022-10-05T00:55:41.935Z,93.07
2022-10-05T00:56:41.916Z,92.97
2022-10-05T00:57:41.936Z,92.97
2022-10-05T00:58:41.904Z,92.97
2022-10-05T00:59:41.920Z,92.97
2022-10-05T01:00:41.897Z,92.97
2022-10-05T01:01:41.879Z,92.97
2022-10-05T01:02:41.929Z,92.97
2022-10-05T01:03:41.847Z,92.97
2022-10-05T01:04:41.882Z,92.97
2022-10-05T01:05:41.824Z,92.87
2022-10-05T01:06:41.815Z,92.83
2022-10-05T01:07:41.807Z,92.83
2022-10-05T01:08:41.786Z,92.83
2022-10-05T01:09:41.815Z,92.83
2022-10-05T01:10:41.865Z,92.72
2022-10-05T01:11:41.756Z,92.72
2022-10-05T01:12:41.746Z,92.72
2022-10-05T01:13:41.737Z,92.72
2022-10-05T01:14:41.747Z,92.72
2022-10-05T01:15:41.878Z,92.63
2022-10-05T01:16:41.725Z,92.63
2022-10-05T01:17:41.716Z,92.63
2022-10-05T01:18:41.686Z,92.63
2022-10-05T01:19:41.676Z,92.63
2022-10-05T01:20:41.748Z,92.52
2022-10-05T01:21:41.665Z,92.63
2022-10-05T01:22:41.836Z,92.63
2022-10-05T01:23:41.626Z,92.52
2022-10-05T01:24:41.617Z,92.52
2022-10-05T01:25:41.613Z,92.52
2022-10-05T01:26:41.640Z,92.52
2022-10-05T01:27:41.590Z,92.48
2022-10-05T01:28:41.797Z,92.48
2022-10-05T01:29:41.565Z,92.48
2022-10-05T01:30:41.554Z,92.48
2022-10-05T01:31:41.610Z,92.38
2022-10-05T01:32:41.759Z,92.38
2022-10-05T01:33:41.525Z,92.38
2022-10-05T01:34:41.879Z,92.38
2022-10-05T01:35:41.569Z,92.38
2022-10-05T01:36:41.515Z,92.38
2022-10-05T01:37:41.486Z,92.27
2022-10-05T01:38:41.484Z,92.38
2022-10-05T01:39:41.457Z,92.38
2022-10-05T01:40:41.452Z,92.27
2022-10-05T01:41:41.449Z,92.27
2022-10-05T01:42:41.415Z,92.38
2022-10-05T01:43:41.474Z,92.27
2022-10-05T01:44:41.415Z,92.27
2022-10-05T01:45:41.412Z,92.27
2022-10-05T01:46:41.375Z,92.38
2022-10-05T01:47:41.373Z,92.38
2022-10-05T01:48:41.406Z,92.27
2022-10-05T01:49:41.395Z,92.27
2022-10-05T01:50:41.338Z,92.27
2022-10-05T01:51:41.332Z,92.27
2022-10-05T01:52:41.569Z,92.27
2022-10-05T01:53:48.331Z,92.27
2022-10-05T01:54:41.316Z,92.27
2022-10-05T01:55:41.294Z,92.27
2022-10-05T01:56:41.282Z,92.27
2022-10-05T01:57:41.271Z,92.27
2022-10-05T01:58:41.277Z,92.27
2022-10-05T01:59:41.272Z,92.27
2022-10-05T02:00:41.288Z,92.27
2022-10-05T02:01:41.213Z,92.27
2022-10-05T02:02:41.294Z,92.27
2022-10-05T02:03:41.263Z,92.27
2022-10-05T02:05:01.353Z,92.27
2022-10-05T02:05:42.347Z,92.23
2022-10-05T02:06:41.170Z,92.23
2022-10-05T02:07:41.142Z,92.23
2022-10-05T02:08:41.142Z,92.23
2022-10-05T02:09:41.131Z,92.23
2022-10-05T02:10:41.124Z,92.23
2022-10-05T02:11:41.162Z,92.23
2022-10-05T02:12:41.102Z,92.23
2022-10-05T02:13:41.083Z,92.23
2022-10-05T02:14:41.073Z,92.23
2022-10-05T02:15:41.114Z,92.23
2022-10-05T02:16:41.084Z,92.23
2022-10-05T02:17:41.756Z,92.23
2022-10-05T02:18:41.032Z,92.23
2022-10-05T02:19:41.022Z,92.23
2022-10-05T02:20:41.016Z,92.23
2022-10-05T02:21:41.043Z,92.13
2022-10-05T02:22:40.994Z,92.13
2022-10-05T02:23:40.973Z,92.13
2022-10-05T02:24:41.025Z,92.13
2022-10-05T02:25:40.953Z,92.13
2022-10-05T02:26:40.954Z,92.03
2022-10-05T02:27:40.979Z,92.03
2022-10-05T02:28:41.015Z,92.03
2022-10-05T02:29:40.912Z,92.03
2022-10-05T02:30:40.912Z,92.03
2022-10-05T02:31:41.065Z,92.03
2022-10-05T02:32:40.910Z,92.03
2022-10-05T02:33:40.882Z,92.03
2022-10-05T02:34:40.984Z,91.93
2022-10-05T02:35:40.862Z,91.93
2022-10-05T02:36:40.843Z,91.93
2022-10-05T02:37:40.821Z,92.03
2022-10-05T02:38:40.853Z,92.03
2022-10-05T02:39:40.803Z,92.03
2022-10-05T02:40:40.861Z,92.03
2022-10-05T02:41:40.786Z,92.03
2022-10-05T02:42:40.771Z,92.03
2022-10-05T02:43:40.762Z,92.13
2022-10-05T02:44:40.758Z,92.13
2022-10-05T02:45:40.766Z,92.13
2022-10-05T02:46:40.767Z,92.13
2022-10-05T02:47:40.712Z,92.13
2022-10-05T02:48:40.711Z,92.23
2022-10-05T02:49:40.734Z,92.23
2022-10-05T02:50:40.699Z,92.23
2022-10-05T02:51:40.681Z,92.23
2022-10-05T02:52:40.683Z,92.23
2022-10-05T02:53:40.657Z,92.23
2022-10-05T02:54:40.651Z,92.13
2022-10-05T02:55:40.671Z,92.13
2022-10-05T02:56:40.621Z,92.13
2022-10-05T02:57:40.601Z,92.13
2022-10-05T02:58:40.604Z,92.13
2022-10-05T02:59:40.583Z,92.03
2022-10-05T03:00:40.758Z,92.03
2022-10-05T03:01:40.675Z,92.03
2022-10-05T03:02:40.561Z,92.03
2022-10-05T03:03:40.571Z,92.03
2022-10-05T03:04:40.531Z,92.03
2022-10-05T03:05:40.556Z,92.13
2022-10-05T03:06:40.511Z,92.03
2022-10-05T03:07:40.529Z,92.03
2022-10-05T03:08:40.544Z,92.03
2022-10-05T03:09:40.482Z,92.03
2022-10-05T03:10:40.471Z,92.13
2022-10-05T03:11:40.452Z,92.13
2022-10-05T03:12:40.443Z,92.13
2022-10-05T03:13:40.462Z,92.13
2022-10-05T03:14:40.421Z,92.13
2022-10-05T03:15:40.482Z,92.13
2022-10-05T03:16:40.410Z,92.23
2022-10-05T03:17:40.442Z,92.33
2022-10-05T03:18:40.383Z,92.44
2022-10-05T03:19:40.381Z,92.44
2022-10-05T03:20:40.362Z,92.44
2022-10-05T03:21:40.341Z,92.54
2022-10-05T03:22:40.333Z,92.54
2022-10-05T03:23:40.350Z,92.54
2022-10-05T03:24:40.319Z,92.54
2022-10-05T03:25:40.310Z,92.54
2022-10-05T03:26:40.291Z,92.54
2022-10-05T03:27:40.310Z,92.64
2022-10-05T03:28:40.323Z,92.79
2022-10-05T03:29:40.261Z,92.74
2022-10-05T03:30:40.282Z,92.89
2022-10-05T03:31:40.318Z,92.89
2022-10-05T03:32:40.229Z,92.89
2022-10-05T03:33:40.218Z,92.89
2022-10-05T03:34:40.214Z,92.89
2022-10-05T03:35:40.192Z,92.89
2022-10-05T03:36:40.191Z,92.89
2022-10-05T03:37:40.223Z,92.99
2022-10-05T03:38:40.171Z,92.99
2022-10-05T03:39:40.162Z,92.99
2022-10-05T03:40:40.189Z,93.09
2022-10-05T03:41:40.132Z,93.19
2022-10-05T03:42:40.131Z,93.19
2022-10-05T03:43:40.110Z,93.29
2022-10-05T03:44:40.171Z,93.29
2022-10-05T03:45:40.161Z,93.29
2022-10-05T03:46:40.150Z,93.29
2022-10-05T03:47:40.103Z,93.40
2022-10-05T03:48:40.061Z,93.40
2022-10-05T03:49:40.040Z,93.50
2022-10-05T03:50:40.040Z,93.50
2022-10-05T03:51:40.020Z,93.60
2022-10-05T03:52:40.012Z,93.60
2022-10-05T03:53:40.081Z,93.60
2022-10-05T03:54:40.002Z,93.60
2022-10-05T03:55:39.983Z,93.70
2022-10-05T03:56:39.970Z,93.80
2022-10-05T03:57:39.961Z,93.80
2022-10-05T03:58:39.987Z,93.70
2022-10-05T03:59:39.972Z,94.01
2022-10-05T04:00:39.927Z,94.11
2022-10-05T04:01:39.946Z,94.11
2022-10-05T04:02:39.959Z,94.11
2022-10-05T04:03:39.920Z,94.21
2022-10-05T04:04:39.895Z,94.31
2022-10-05T04:05:39.908Z,94.31
2022-10-05T04:06:39.869Z,94.21
2022-10-05T04:07:39.843Z,94.42
2022-10-05T04:08:45.362Z,94.68
2022-10-05T04:09:40.856Z,94.68
2022-10-05T04:10:39.848Z,94.57
2022-10-05T04:11:39.830Z,94.42
2022-10-05T04:12:39.789Z,94.21
2022-10-05T04:13:39.778Z,94.11
2022-10-05T04:14:39.769Z,94.01
2022-10-05T04:15:39.856Z,93.90
2022-10-05T04:16:39.760Z,93.80
2022-10-05T04:17:39.740Z,93.90
2022-10-05T04:18:39.740Z,94.01
2022-10-05T04:19:39.739Z,93.86
2022-10-05T04:20:39.743Z,93.76
2022-10-05T04:21:39.701Z,93.76
2022-10-05T04:22:39.690Z,93.66
2022-10-05T04:23:39.669Z,93.55
2022-10-05T04:24:39.669Z,93.55
2022-10-05T04:25:39.729Z,93.45
2022-10-05T04:26:39.639Z,93.45
2022-10-05T04:27:39.638Z,93.55
2022-10-05T04:28:39.662Z,93.86
2022-10-05T04:29:39.608Z,94.17
2022-10-05T04:30:39.601Z,94.27
2022-10-05T04:31:42.575Z,93.96
2022-10-05T04:32:39.582Z,93.55
2022-10-05T04:33:39.569Z,93.35
2022-10-05T04:34:39.551Z,93.25
2022-10-05T04:35:39.547Z,93.25
2022-10-05T04:36:39.559Z,93.15
2022-10-05T04:37:42.165Z,93.55
2022-10-05T04:38:40.558Z,93.35
2022-10-05T04:39:39.512Z,93.05
2022-10-05T04:40:39.500Z,92.94
2022-10-05T04:41:39.509Z,92.90
2022-10-05T04:42:39.479Z,92.60
2022-10-05T04:43:39.459Z,92.49
2022-10-05T04:44:39.485Z,92.49
2022-10-05T04:45:39.429Z,92.49
2022-10-05T04:46:39.471Z,92.40
2022-10-05T04:47:39.448Z,92.29
2022-10-05T04:48:39.460Z,92.19
2022-10-05T04:49:39.419Z,92.09
2022-10-05T04:50:39.379Z,91.99
2022-10-05T04:51:39.400Z,91.99
2022-10-05T04:52:39.360Z,91.88
2022-10-05T04:53:39.360Z,91.88
2022-10-05T04:54:39.338Z,91.88
2022-10-05T04:55:39.319Z,91.78
2022-10-05T04:56:39.397Z,91.68
2022-10-05T04:57:39.355Z,91.68
2022-10-05T04:58:42.447Z,91.58
2022-10-05T04:59:39.275Z,91.58
2022-10-05T05:00:39.334Z,91.48
2022-10-05T05:01:39.249Z,91.38
2022-10-05T05:02:39.247Z,91.27
2022-10-05T05:03:39.295Z,91.27
2022-10-05T05:04:39.227Z,91.27
2022-10-05T05:05:58.654Z,91.17
2022-10-05T05:06:44.085Z,91.17
2022-10-05T05:07:39.199Z,91.23
2022-10-05T05:08:39.186Z,91.13
2022-10-05T05:09:39.169Z,91.03
2022-10-05T05:10:39.161Z,90.92
2022-10-05T05:11:39.190Z,90.92
2022-10-05T05:12:39.148Z,90.92
2022-10-05T05:13:39.126Z,90.92
2022-10-05T05:14:39.128Z,90.83
2022-10-05T05:15:39.099Z,91.03
2022-10-05T05:16:39.098Z,91.03
2022-10-05T05:17:39.106Z,90.83
2022-10-05T05:18:39.076Z,90.72
2022-10-05T05:19:39.059Z,90.62
2022-10-05T05:20:39.049Z,90.62
2022-10-05T05:21:39.031Z,90.72
2022-10-05T05:22:39.158Z,90.83
2022-10-05T05:23:39.021Z,90.72
2022-10-05T05:24:39.008Z,90.42
2022-10-05T05:25:38.998Z,90.31
2022-10-05T05:26:39.233Z,90.31
2022-10-05T05:27:38.968Z,90.22
2022-10-05T05:28:39.113Z,90.31
2022-10-05T05:29:38.949Z,90.58
2022-10-05T05:30:38.948Z,90.48
2022-10-05T05:31:38.970Z,90.37
2022-10-05T05:32:38.951Z,90.37
2022-10-05T05:33:38.908Z,90.58
2022-10-05T05:34:38.959Z,90.37
2022-10-05T05:35:38.921Z,90.17
2022-10-05T05:36:38.879Z,89.97
2022-10-05T05:37:38.867Z,90.07
2022-10-05T05:38:38.848Z,90.17
2022-10-05T05:39:38.838Z,89.97
2022-10-05T05:40:38.829Z,89.87
2022-10-05T05:41:38.861Z,89.87
2022-10-05T05:42:38.817Z,89.87
2022-10-05T05:43:38.798Z,89.76
2022-10-05T05:44:39.156Z,89.87
2022-10-05T05:45:38.767Z,89.76
2022-10-05T05:47:02.207Z,89.66
2022-10-05T05:47:39.812Z,89.56
2022-10-05T05:48:38.756Z,89.66
2022-10-05T05:49:38.739Z,89.56
2022-10-05T05:50:38.771Z,89.66
2022-10-05T05:51:38.709Z,89.66
2022-10-05T05:52:38.699Z,89.56
2022-10-05T05:53:38.688Z,89.46
2022-10-05T05:54:38.706Z,89.36
2022-10-05T05:55:38.660Z,89.36
2022-10-05T05:56:38.745Z,89.26
2022-10-05T05:57:38.639Z,89.36
2022-10-05T05:58:38.633Z,89.36
2022-10-05T05:59:38.619Z,89.46
2022-10-05T06:00:38.616Z,89.46
2022-10-05T06:01:43.533Z,89.22
2022-10-05T06:02:39.739Z,89.11
2022-10-05T06:03:38.583Z,89.22
2022-10-05T06:04:38.568Z,88.91
2022-10-05T06:05:38.549Z,88.91
2022-10-05T06:06:38.547Z,88.71
2022-10-05T06:07:38.527Z,88.40
2022-10-05T06:08:38.560Z,88.30
2022-10-05T06:09:38.547Z,88.20
2022-10-05T06:10:38.531Z,88.20
2022-10-05T06:11:38.540Z,88.20
2022-10-05T06:12:38.484Z,88.20
2022-10-05T06:13:38.467Z,88.20
2022-10-05T06:14:38.458Z,88.10
2022-10-05T06:15:38.446Z,88.10
2022-10-05T06:16:38.532Z,88.20
2022-10-05T06:17:38.478Z,88.10
2022-10-05T06:18:38.409Z,87.99
2022-10-05T06:19:38.398Z,87.99
2022-10-05T06:20:38.388Z,87.89
2022-10-05T06:21:38.377Z,87.79
2022-10-05T06:22:38.392Z,87.89
2022-10-05T06:23:41.567Z,88.50
2022-10-05T06:24:38.355Z,88.26
2022-10-05T06:25:38.338Z,88.76
2022-10-05T06:26:38.439Z,88.16
2022-10-05T06:27:38.316Z,87.75
2022-10-05T06:28:38.499Z,87.85
2022-10-05T06:29:38.315Z,87.85
2022-10-05T06:30:42.275Z,87.85
2022-10-05T06:31:38.337Z,87.65
2022-10-05T06:32:38.278Z,87.34
2022-10-05T06:33:38.408Z,87.24
2022-10-05T06:34:38.257Z,86.94
2022-10-05T06:35:38.239Z,87.04
2022-10-05T06:36:38.207Z,87.24
2022-10-05T06:37:38.218Z,87.24
2022-10-05T06:38:38.197Z,87.40
2022-10-05T06:39:38.930Z,87.40
2022-10-05T06:40:38.224Z,86.80
2022-10-05T06:41:38.167Z,86.59
2022-10-05T06:42:38.168Z,86.59
2022-10-05T06:43:38.141Z,86.39
2022-10-05T06:44:38.189Z,86.29
2022-10-05T06:45:38.178Z,86.19
2022-10-05T06:46:38.099Z,85.98
2022-10-05T06:47:38.127Z,85.98
2022-10-05T06:48:41.828Z,85.98
2022-10-05T06:49:38.098Z,86.08
2022-10-05T06:50:38.057Z,86.08
2022-10-05T06:51:38.058Z,85.88
2022-10-05T06:52:38.082Z,85.88
2022-10-05T06:53:38.059Z,85.78
2022-10-05T06:54:38.127Z,85.68
2022-10-05T06:55:38.129Z,85.17
2022-10-05T06:56:38.084Z,84.93
2022-10-05T06:57:38.056Z,85.03
2022-10-05T06:58:40.277Z,84.83
2022-10-05T06:59:39.769Z,84.63
2022-10-05T07:00:38.083Z,84.63
2022-10-05T07:01:40.143Z,84.42
2022-10-05T07:02:38.044Z,84.32
2022-10-05T07:03:40.695Z,84.22
2022-10-05T07:04:38.040Z,84.12
2022-10-05T07:05:38.042Z,84.12
2022-10-05T07:06:40.027Z,84.01
2022-10-05T07:07:53.117Z,83.91
2022-10-05T07:08:42.634Z,84.08
2022-10-05T07:09:43.456Z,83.77
2022-10-05T07:10:38.075Z,83.77
2022-10-05T07:11:37.858Z,83.37
2022-10-05T07:12:37.826Z,83.37
2022-10-05T07:13:37.837Z,83.37
2022-10-05T07:14:37.848Z,83.47
2022-10-05T07:15:37.807Z,83.57
2022-10-05T07:16:38.262Z,83.37
2022-10-05T07:17:47.137Z,83.17
2022-10-05T07:18:37.768Z,83.17
2022-10-05T07:19:37.757Z,83.06
2022-10-05T07:20:37.765Z,83.06
2022-10-05T07:21:37.785Z,82.86
2022-10-05T07:22:37.726Z,82.76
2022-10-05T07:23:37.719Z,82.66
2022-10-05T07:24:37.729Z,82.45
2022-10-05T07:25:37.706Z,82.52
2022-10-05T07:26:37.701Z,82.52
2022-10-05T07:27:37.917Z,82.31
2022-10-05T07:28:37.817Z,82.21
2022-10-05T07:29:37.678Z,82.31
2022-10-05T07:30:37.699Z,82.11
2022-10-05T07:31:37.627Z,82.21
2022-10-05T07:32:37.618Z,81.91
2022-10-05T07:33:37.817Z,81.81
2022-10-05T07:34:37.636Z,81.91
2022-10-05T07:35:37.588Z,81.71
2022-10-05T07:36:37.578Z,81.71
2022-10-05T07:37:37.608Z,81.81
2022-10-05T07:38:37.557Z,81.91
2022-10-05T07:39:59.797Z,82.11
2022-10-05T07:40:38.530Z,81.81
2022-10-05T07:41:37.518Z,81.81
2022-10-05T07:42:46.052Z,81.71
2022-10-05T07:44:00.596Z,81.50
2022-10-05T07:44:38.495Z,81.30
2022-10-05T07:45:37.516Z,81.40
2022-10-05T07:46:37.464Z,81.50
2022-10-05T07:47:37.446Z,81.40
2022-10-05T07:48:37.494Z,81.20
2022-10-05T07:49:37.438Z,81.40
2022-10-05T07:50:37.446Z,81.50
2022-10-05T07:51:37.418Z,81.50
2022-10-05T07:52:37.447Z,81.60
2022-10-05T07:53:44.432Z,81.40
2022-10-05T07:54:37.351Z,81.60
2022-10-05T07:55:37.340Z,81.60
2022-10-05T07:56:37.368Z,81.40
2022-10-05T07:57:37.310Z,81.50
2022-10-05T07:58:37.300Z,81.30
2022-10-05T07:59:37.298Z,81.37
2022-10-05T08:00:37.281Z,81.26
2022-10-05T08:01:37.375Z,81.37
2022-10-05T08:02:37.447Z,81.46
2022-10-05T08:03:37.276Z,81.57
2022-10-05T08:04:41.615Z,81.46
2022-10-05T08:05:37.229Z,81.46
2022-10-05T08:06:37.279Z,81.37
2022-10-05T08:07:37.209Z,81.26
2022-10-05T08:08:37.198Z,81.16
2022-10-05T08:09:37.193Z,81.16
2022-10-05T08:10:37.172Z,81.37
2022-10-05T08:11:37.190Z,81.37
2022-10-05T08:12:37.178Z,81.37
2022-10-05T08:13:37.240Z,81.37
2022-10-05T08:14:37.159Z,81.16
2022-10-05T08:15:37.160Z,81.06
2022-10-05T08:16:37.106Z,81.16
2022-10-05T08:17:37.090Z,81.23
2022-10-05T08:18:37.079Z,81.12
2022-10-05T08:19:37.080Z,81.02
2022-10-05T08:20:40.239Z,81.02
2022-10-05T08:21:37.058Z,81.02
2022-10-05T08:22:37.039Z,81.12
2022-10-05T08:23:37.029Z,81.12
2022-10-05T08:24:37.049Z,81.02
2022-10-05T08:25:37.009Z,81.12
2022-10-05T08:26:36.989Z,81.02
2022-10-05T08:27:36.992Z,80.92
2022-10-05T08:28:37.081Z,81.02
2022-10-05T08:29:36.959Z,80.72
2022-10-05T08:30:37.101Z,80.72
2022-10-05T08:31:37.013Z,80.72
2022-10-05T08:32:36.929Z,80.62
2022-10-05T08:33:36.931Z,80.41
2022-10-05T08:34:36.910Z,80.41
2022-10-05T08:35:36.900Z,80.41
2022-10-05T08:36:36.925Z,80.62
2022-10-05T08:37:36.879Z,80.52
2022-10-05T08:38:36.859Z,80.52
2022-10-05T08:39:36.861Z,80.52
2022-10-05T08:40:36.851Z,80.72
2022-10-05T08:41:36.839Z,80.52
2022-10-05T08:42:36.839Z,80.38
2022-10-05T08:43:36.810Z,80.27
2022-10-05T08:44:36.849Z,80.18
2022-10-05T08:45:36.828Z,80.07
2022-10-05T08:46:36.876Z,79.97
2022-10-05T08:47:36.810Z,80.18
2022-10-05T08:48:36.761Z,80.07
2022-10-05T08:49:36.750Z,80.27
2022-10-05T08:50:36.745Z,80.18
2022-10-05T08:51:36.730Z,80.27
2022-10-05T08:52:36.766Z,79.97
2022-10-05T08:53:36.730Z,80.07
2022-10-05T08:54:36.693Z,80.18
2022-10-05T08:55:36.700Z,79.97
2022-10-05T08:56:36.671Z,79.97
2022-10-05T08:57:36.663Z,80.07
2022-10-05T08:58:36.696Z,80.18
2022-10-05T08:59:36.642Z,80.07
2022-10-05T09:00:36.643Z,80.47
2022-10-05T09:01:36.644Z,80.07
2022-10-05T09:02:36.637Z,79.97
2022-10-05T09:03:36.602Z,79.77
2022-10-05T09:04:39.807Z,79.36
2022-10-05T09:05:36.585Z,79.83
2022-10-05T09:06:36.560Z,79.73
2022-10-05T09:07:43.229Z,79.73
2022-10-05T09:08:36.539Z,79.53
2022-10-05T09:09:36.572Z,79.53
2022-10-05T09:10:36.540Z,79.43
2022-10-05T09:11:36.533Z,79.43
2022-10-05T09:12:36.521Z,79.53
2022-10-05T09:13:36.490Z,79.43
2022-10-05T09:14:39.910Z,79.43
2022-10-05T09:15:36.502Z,79.02
2022-10-05T09:16:36.453Z,78.92
2022-10-05T09:17:39.365Z,78.92
2022-10-05T09:18:36.480Z,79.08
2022-10-05T09:19:36.433Z,78.88
2022-10-05T09:20:36.411Z,78.88
2022-10-05T09:21:36.400Z,78.78
2022-10-05T09:22:36.664Z,78.78
2022-10-05T09:23:36.382Z,78.78
2022-10-05T09:24:36.411Z,78.68
2022-10-05T09:25:36.360Z,78.38
2022-10-05T09:26:36.350Z,78.38
2022-10-05T09:27:36.349Z,78.38
2022-10-05T09:28:36.425Z,78.38
2022-10-05T09:29:36.359Z,78.58
2022-10-05T09:30:36.302Z,78.28
2022-10-05T09:31:36.354Z,78.38
2022-10-05T09:32:36.284Z,78.48
2022-10-05T09:33:36.270Z,78.28
2022-10-05T09:34:36.347Z,78.17
2022-10-05T09:35:36.292Z,77.97
2022-10-05T09:36:36.230Z,78.08
2022-10-05T09:37:36.230Z,78.14
2022-10-05T09:38:36.219Z,77.64
2022-10-05T09:39:36.279Z,77.73
2022-10-05T09:40:36.200Z,77.53
2022-10-05T09:41:36.180Z,77.33
2022-10-05T09:42:36.178Z,77.64
2022-10-05T09:43:36.210Z,77.84
2022-10-05T09:44:36.161Z,77.33
2022-10-05T09:45:36.150Z,77.43
2022-10-05T09:46:36.204Z,77.43
2022-10-05T09:47:36.121Z,77.64
2022-10-05T09:48:36.107Z,77.33
2022-10-05T09:49:36.142Z,77.33
2022-10-05T09:50:36.090Z,77.33
2022-10-05T09:51:36.072Z,76.93
2022-10-05T09:52:36.067Z,77.13
2022-10-05T09:53:36.073Z,77.13
2022-10-05T09:54:36.040Z,77.29
2022-10-05T09:55:36.080Z,77.60
2022-10-05T09:56:36.031Z,77.39
2022-10-05T09:57:36.020Z,77.19
2022-10-05T09:58:36.004Z,76.99
2022-10-05T09:59:36.031Z,76.79
2022-10-05T10:00:35.972Z,76.79
2022-10-05T10:01:36.046Z,76.48
2022-10-05T10:02:36.065Z,76.59
2022-10-05T10:03:35.993Z,76.79
2022-10-05T10:04:36.001Z,76.89
2022-10-05T10:05:35.930Z,77.09
2022-10-05T10:06:35.949Z,76.89
2022-10-05T10:07:35.912Z,76.99
2022-10-05T10:08:35.910Z,76.95
2022-10-05T10:09:38.713Z,76.45
2022-10-05T10:10:35.871Z,76.55
2022-10-05T10:11:35.873Z,76.45
2022-10-05T10:12:35.871Z,76.25
2022-10-05T10:13:35.902Z,76.25
2022-10-05T10:14:35.831Z,76.35
2022-10-05T10:15:35.848Z,76.15
2022-10-05T10:16:35.841Z,76.45
2022-10-05T10:17:35.835Z,76.75
2022-10-05T10:18:35.782Z,76.35
2022-10-05T10:19:35.781Z,76.35
2022-10-05T10:20:35.772Z,76.15
2022-10-05T10:21:35.791Z,76.04
2022-10-05T10:22:39.612Z,76.15
2022-10-05T10:23:36.770Z,76.04
2022-10-05T10:24:35.727Z,76.35
2022-10-05T10:25:35.711Z,76.86
2022-10-05T10:26:35.693Z,76.55
2022-10-05T10:27:35.688Z,76.82
2022-10-05T10:28:35.733Z,76.62
2022-10-05T10:29:35.720Z,76.51
2022-10-05T10:30:36.542Z,76.62
2022-10-05T10:31:35.653Z,76.51
2022-10-05T10:32:35.632Z,76.72
2022-10-05T10:33:35.631Z,76.72
2022-10-05T10:34:35.614Z,76.31
2022-10-05T10:35:35.643Z,76.62
2022-10-05T10:36:35.592Z,75.81
2022-10-05T10:37:35.571Z,76.48
2022-10-05T10:38:35.591Z,76.18
2022-10-05T10:39:35.639Z,75.98
2022-10-05T10:40:35.543Z,75.37
2022-10-05T10:41:35.530Z,75.67
2022-10-05T10:42:35.543Z,75.51
2022-10-05T10:43:35.512Z,75.77
2022-10-05T10:44:37.592Z,75.47
2022-10-05T10:45:35.483Z,75.67
2022-10-05T10:46:35.584Z,75.87
2022-10-05T10:47:35.681Z,75.87
2022-10-05T10:48:35.461Z,76.58
2022-10-05T10:49:35.443Z,75.77
2022-10-05T10:50:35.433Z,75.57
2022-10-05T10:51:35.414Z,75.67
2022-10-05T10:52:35.527Z,75.67
2022-10-05T10:53:38.592Z,75.77
2022-10-05T10:54:35.390Z,75.16
2022-10-05T10:55:35.379Z,75.34
2022-10-05T10:56:35.373Z,75.23
2022-10-05T10:57:35.423Z,74.66
2022-10-05T10:58:35.392Z,74.76
2022-10-05T10:59:35.333Z,75.34
2022-10-05T11:00:35.342Z,75.13
2022-10-05T11:01:35.416Z,75.34
2022-10-05T11:02:35.374Z,75.34
2022-10-05T11:03:35.301Z,75.23
2022-10-05T11:04:35.346Z,74.93
2022-10-05T11:05:35.271Z,74.83
2022-10-05T11:06:35.365Z,74.73
2022-10-05T11:07:35.263Z,74.43
2022-10-05T11:08:35.240Z,74.73
2022-10-05T11:09:35.251Z,74.73
2022-10-05T11:10:35.263Z,75.13
2022-10-05T11:11:35.278Z,75.03
2022-10-05T11:12:35.254Z,74.43
2022-10-05T11:13:35.175Z,74.63
2022-10-05T11:14:35.202Z,74.52
2022-10-05T11:15:35.215Z,74.69
2022-10-05T11:16:35.153Z,74.59
2022-10-05T11:17:35.151Z,74.79
2022-10-05T11:18:35.161Z,74.39
2022-10-05T11:19:40.725Z,74.49
2022-10-05T11:20:36.152Z,74.49
2022-10-05T11:21:35.093Z,73.79
2022-10-05T11:22:35.113Z,74.08
2022-10-05T11:23:38.810Z,73.88
2022-10-05T11:24:35.066Z,73.68
2022-10-05T11:25:35.059Z,73.58
2022-10-05T11:26:35.043Z,73.68
2022-10-05T11:27:35.025Z,73.38
2022-10-05T11:28:35.131Z,73.68
2022-10-05T11:29:35.007Z,73.45
2022-10-05T11:30:35.033Z,73.65
2022-10-05T11:31:35.120Z,73.85
2022-10-05T11:32:34.981Z,73.35
2022-10-05T11:33:34.983Z,73.05
2022-10-05T11:34:34.953Z,72.94
2022-10-05T11:35:34.944Z,72.94
2022-10-05T11:36:34.978Z,73.05
2022-10-05T11:37:34.922Z,72.91
2022-10-05T11:38:34.916Z,72.81
2022-10-05T11:39:34.903Z,73.01
2022-10-05T11:40:34.893Z,73.21
2022-10-05T11:41:34.898Z,72.81
2022-10-05T11:42:34.931Z,72.71
2022-10-05T11:43:34.862Z,72.27
2022-10-05T11:44:34.855Z,71.97
2022-10-05T11:45:34.834Z,72.11
2022-10-05T11:46:35.001Z,72.61
2022-10-05T11:47:34.884Z,72.20
2022-10-05T11:48:34.834Z,72.27
2022-10-05T11:49:34.784Z,71.97
2022-10-05T11:50:35.480Z,72.17
2022-10-05T11:51:34.767Z,72.27
2022-10-05T11:52:34.882Z,71.87
2022-10-05T11:53:34.744Z,71.26
2022-10-05T11:54:58.516Z,71.16
2022-10-05T11:55:35.722Z,71.26
2022-10-05T11:56:34.730Z,71.26
2022-10-05T11:57:34.702Z,71.33
2022-10-05T11:58:34.732Z,71.53
2022-10-05T11:59:34.681Z,71.43
2022-10-05T12:00:34.683Z,71.23
2022-10-05T12:01:34.678Z,70.83
2022-10-05T12:02:35.145Z,70.53
2022-10-05T12:03:34.836Z,70.53
2022-10-05T12:04:34.804Z,70.93
2022-10-05T12:05:34.645Z,71.23
2022-10-05T12:06:34.614Z,71.23
2022-10-05T12:07:34.594Z,71.30
2022-10-05T12:08:34.646Z,71.09
2022-10-05T12:09:34.575Z,71.00
2022-10-05T12:10:34.605Z,71.09
2022-10-05T12:11:34.555Z,70.70
2022-10-05T12:12:34.544Z,70.89
2022-10-05T12:13:34.535Z,71.00
2022-10-05T12:14:34.524Z,70.89
2022-10-05T12:15:36.514Z,71.00
2022-10-05T12:16:34.522Z,71.20
2022-10-05T12:17:34.655Z,71.20
2022-10-05T12:18:34.490Z,70.79
2022-10-05T12:19:34.464Z,70.50
2022-10-05T12:20:34.463Z,70.06
2022-10-05T12:21:34.610Z,70.66
2022-10-05T12:22:34.434Z,70.06
2022-10-05T12:23:34.428Z,70.16
2022-10-05T12:24:34.414Z,70.06
2022-10-05T12:25:34.415Z,69.85
2022-10-05T12:26:34.402Z,69.56
2022-10-05T12:27:34.455Z,69.65
2022-10-05T12:28:34.527Z,69.96
2022-10-05T12:29:34.367Z,69.56
2022-10-05T12:30:34.353Z,69.45
2022-10-05T12:31:34.392Z,69.06
2022-10-05T12:32:34.386Z,68.65
2022-10-05T12:33:34.314Z,69.06
2022-10-05T12:34:34.313Z,69.45
2022-10-05T12:35:47.936Z,69.76
2022-10-05T12:37:02.495Z,69.56
2022-10-05T12:37:35.295Z,69.65
2022-10-05T12:38:34.265Z,69.56
2022-10-05T12:39:34.247Z,69.25
2022-10-05T12:40:34.271Z,69.35
2022-10-05T12:41:34.569Z,69.35
2022-10-05T12:42:38.096Z,69.42
2022-10-05T12:43:35.233Z,69.02
2022-10-05T12:44:34.345Z,68.72
2022-10-05T12:45:34.238Z,68.62
2022-10-05T12:46:34.175Z,68.32
2022-10-05T12:47:34.166Z,68.41
2022-10-05T12:48:34.158Z,68.52
2022-10-05T12:49:34.166Z,68.41
2022-10-05T12:50:34.175Z,68.21
2022-10-05T12:51:34.116Z,67.91
2022-10-05T12:52:34.115Z,68.02